sensor_id;sensor_type;location;lat;lon;timestamp;temperature;humidity
4293;DHT22;2160;51.172;6.808;2024-01-30T05:00:38;11.10;99.90
4293;DHT22;2160;51.172;6.808;2024-01-30T05:03:05;11.10;99.90
4293;DHT22;2160;51.172;6.808;2024-01-30T05:05:32;11.10;99.90
4293;DHT22;2160;51.172;6.808;2024-01-30T05:07:59;11.10;99.90
4293;DHT22;2160;51.172;6.808;2024-01-30T05:10:26;11.00;99.90
4293;DHT22;2160;51.172;6.808;2024-01-30T05:12:54;10.90;99.90
4293;DHT22;2160;51.172;6.808;2024-01-30T05:15:21;11.00;99.90
4293;DHT22;2160;51.172;6.808;2024-01-30T05:17:49;11.20;99.90
4293;DHT22;2160;51.172;6.808;2024-01-30T05:20:17;11.30;99.90
4293;DHT22;2160;51.172;6.808;2024-01-30T05:22:44;11.20;99.90
4293;DHT22;2160;51.172;6.808;2024-01-30T05:25:12;11.10;99.90
4293;DHT22;2160;51.172;6.808;2024-01-30T05:27:39;11.10;99.90
4293;DHT22;2160;51.172;6.808;2024-01-30T05:30:07;11.10;99.90
4293;DHT22;2160;51.172;6.808;2024-01-30T05:32:35;11.20;99.90
4293;DHT22;2160;51.172;6.808;2024-01-30T05:35:04;11.00;99.90
4293;DHT22;2160;51.172;6.808;2024-01-30T05:37:31;11.00;99.90
4293;DHT22;2160;51.172;6.808;2024-01-30T05:39:58;11.00;99.90
4293;DHT22;2160;51.172;6.808;2024-01-30T05:42:25;11.20;99.90
4293;DHT22;2160;51.172;6.808;2024-01-30T05:44:52;10.90;99.90
4293;DHT22;2160;51.172;6.808;2024-01-30T05:47:19;10.90;99.90
4293;DHT22;2160;51.172;6.808;2024-01-30T05:49:46;10.90;99.90
4293;DHT22;2160;51.172;6.808;2024-01-30T05:52:14;10.90;99.90
4293;DHT22;2160;51.172;6.808;2024-01-30T05:54:42;10.80;99.90
4293;DHT22;2160;51.172;6.808;2024-01-30T05:57:09;10.80;99.90
4293;DHT22;2160;51.172;6.808;2024-01-30T05:59:36;10.80;99.90
4293;DHT22;2160;51.172;6.808;2024-01-30T06:02:03;10.80;99.90
4293;DHT22;2160;51.172;6.808;2024-01-30T06:04:30;10.70;99.90
4293;DHT22;2160;51.172;6.808;2024-01-30T06:06:57;10.70;99.90
4293;DHT22;2160;51.172;6.808;2024-01-30T06:09:28;10.80;99.90
4293;DHT22;2160;51.172;6.808;2024-01-30T06:11:55;10.70;99.90
4293;DHT22;2160;51.172;6.808;2024-01-30T06:14:22;10.90;99.90
4293;DHT22;2160;51.172;6.808;2024-01-30T06:16:52;10.80;99.90
4293;DHT22;2160;51.172;6.808;2024-01-30T06:19:19;10.70;99.90
4293;DHT22;2160;51.172;6.808;2024-01-30T06:21:46;10.80;99.90
4293;DHT22;2160;51.172;6.808;2024-01-30T06:24:13;10.80;99.90
4293;DHT22;2160;51.172;6.808;2024-01-30T06:26:41;10.90;99.90
4293;DHT22;2160;51.172;6.808;2024-01-30T06:29:08;10.80;99.90
4293;DHT22;2160;51.172;6.808;2024-01-30T06:31:40;10.90;99.90
4293;DHT22;2160;51.172;6.808;2024-01-30T06:34:07;10.80;99.90
4293;DHT22;2160;51.172;6.808;2024-01-30T06:36:34;11.00;99.90
4293;DHT22;2160;51.172;6.808;2024-01-30T06:39:01;10.80;99.90
4293;DHT22;2160;51.172;6.808;2024-01-30T06:41:28;10.80;99.90
4293;DHT22;2160;51.172;6.808;2024-01-30T06:43:57;10.70;99.90
4293;DHT22;2160;51.172;6.808;2024-01-30T06:46:24;10.80;99.90
4293;DHT22;2160;51.172;6.808;2024-01-30T06:48:50;10.80;99.90
4293;DHT22;2160;51.172;6.808;2024-01-30T06:51:17;10.90;99.90
4293;DHT22;2160;51.172;6.808;2024-01-30T06:53:44;10.90;99.90
4293;DHT22;2160;51.172;6.808;2024-01-30T06:56:11;10.90;99.90
4293;DHT22;2160;51.172;6.808;2024-01-30T06:58:38;10.80;99.90
4293;DHT22;2160;51.172;6.808;2024-01-30T07:01:07;10.80;99.90
4293;DHT22;2160;51.172;6.808;2024-01-30T07:03:35;10.80;99.90
4293;DHT22;2160;51.172;6.808;2024-01-30T07:06:02;10.90;99.90
4293;DHT22;2160;51.172;6.808;2024-01-30T07:08:29;11.00;99.90
4293;DHT22;2160;51.172;6.808;2024-01-30T07:10:56;11.00;99.90
4293;DHT22;2160;51.172;6.808;2024-01-30T07:13:23;11.10;99.90
4293;DHT22;2160;51.172;6.808;2024-01-30T07:15:50;11.10;99.90
4293;DHT22;2160;51.172;6.808;2024-01-30T07:18:18;11.10;99.90
4293;DHT22;2160;51.172;6.808;2024-01-30T07:20:45;11.10;99.90
4293;DHT22;2160;51.172;6.808;2024-01-30T07:23:13;11.20;99.90
4293;DHT22;2160;51.172;6.808;2024-01-30T07:25:43;11.20;99.90
4293;DHT22;2160;51.172;6.808;2024-01-30T07:28:10;11.00;99.90
4293;DHT22;2160;51.172;6.808;2024-01-30T07:30:38;11.10;99.90
4293;DHT22;2160;51.172;6.808;2024-01-30T07:33:05;11.20;99.90
4293;DHT22;2160;51.172;6.808;2024-01-30T07:35:33;11.20;99.90
4293;DHT22;2160;51.172;6.808;2024-01-30T07:38:01;11.20;99.90
4293;DHT22;2160;51.172;6.808;2024-01-30T07:40:28;11.30;99.90
4293;DHT22;2160;51.172;6.808;2024-01-30T07:42:55;11.30;99.90
4293;DHT22;2160;51.172;6.808;2024-01-30T07:45:22;11.30;99.90
4293;DHT22;2160;51.172;6.808;2024-01-30T07:47:51;11.30;99.90
4293;DHT22;2160;51.172;6.808;2024-01-30T07:50:18;11.30;99.90
4293;DHT22;2160;51.172;6.808;2024-01-30T07:52:46;11.40;99.90
4293;DHT22;2160;51.172;6.808;2024-01-30T07:55:16;11.40;99.90
4293;DHT22;2160;51.172;6.808;2024-01-30T07:57:45;11.50;99.90
4293;DHT22;2160;51.172;6.808;2024-01-30T08:00:13;11.50;99.90
4293;DHT22;2160;51.172;6.808;2024-01-30T08:02:40;11.50;99.90
4293;DHT22;2160;51.172;6.808;2024-01-30T08:05:07;11.50;99.90
4293;DHT22;2160;51.172;6.808;2024-01-30T08:07:36;11.50;99.90
4293;DHT22;2160;51.172;6.808;2024-01-30T08:10:05;11.50;99.90
4293;DHT22;2160;51.172;6.808;2024-01-30T08:12:32;11.50;99.90
4293;DHT22;2160;51.172;6.808;2024-01-30T08:14:59;11.60;99.90
4293;DHT22;2160;51.172;6.808;2024-01-30T08:17:26;11.70;99.90
4293;DHT22;2160;51.172;6.808;2024-01-30T08:19:53;11.70;99.90
4293;DHT22;2160;51.172;6.808;2024-01-30T08:22:20;11.70;99.90
4293;DHT22;2160;51.172;6.808;2024-01-30T08:24:47;11.70;99.90
4293;DHT22;2160;51.172;6.808;2024-01-30T08:27:16;11.70;99.90
4293;DHT22;2160;51.172;6.808;2024-01-30T08:29:43;11.80;99.90
4293;DHT22;2160;51.172;6.808;2024-01-30T08:32:10;11.80;99.90
4293;DHT22;2160;51.172;6.808;2024-01-30T08:34:36;11.90;99.90
4293;DHT22;2160;51.172;6.808;2024-01-30T08:37:03;11.90;99.90
4293;DHT22;2160;51.172;6.808;2024-01-30T08:39:30;11.90;99.90
4293;DHT22;2160;51.172;6.808;2024-01-30T08:41:57;11.90;99.90
4293;DHT22;2160;51.172;6.808;2024-01-30T08:44:26;12.00;99.90
4293;DHT22;2160;51.172;6.808;2024-01-30T08:46:53;11.90;99.90
4293;DHT22;2160;51.172;6.808;2024-01-30T08:49:20;11.90;99.90
4293;DHT22;2160;51.172;6.808;2024-01-30T08:51:47;12.10;99.90
4293;DHT22;2160;51.172;6.808;2024-01-30T08:54:14;12.20;99.90
4293;DHT22;2160;51.172;6.808;2024-01-30T08:56:41;12.20;99.90
4293;DHT22;2160;51.172;6.808;2024-01-30T08:59:08;12.20;99.90
4293;DHT22;2160;51.172;6.808;2024-01-30T09:01:36;12.20;99.90
4293;DHT22;2160;51.172;6.808;2024-01-30T09:04:04;12.20;99.90
4293;DHT22;2160;51.172;6.808;2024-01-30T09:06:31;12.20;99.90
4293;DHT22;2160;51.172;6.808;2024-01-30T09:08:58;12.30;99.90
4293;DHT22;2160;51.172;6.808;2024-01-30T09:11:25;12.50;99.90
4293;DHT22;2160;51.172;6.808;2024-01-30T09:13:52;12.50;99.90
4293;DHT22;2160;51.172;6.808;2024-01-30T09:16:19;12.50;99.90
4293;DHT22;2160;51.172;6.808;2024-01-30T09:18:47;12.60;99.90
4293;DHT22;2160;51.172;6.808;2024-01-30T09:21:15;12.60;99.90
4293;DHT22;2160;51.172;6.808;2024-01-30T09:23:42;12.80;99.90
4293;DHT22;2160;51.172;6.808;2024-01-30T09:26:09;12.70;99.90
4293;DHT22;2160;51.172;6.808;2024-01-30T09:28:38;12.80;99.90
4293;DHT22;2160;51.172;6.808;2024-01-30T09:31:09;12.90;99.90
4293;DHT22;2160;51.172;6.808;2024-01-30T09:33:36;12.90;99.90
4293;DHT22;2160;51.172;6.808;2024-01-30T09:36:07;13.00;99.90
4293;DHT22;2160;51.172;6.808;2024-01-30T09:38:34;13.00;99.90
4293;DHT22;2160;51.172;6.808;2024-01-30T09:41:04;13.10;99.90
4293;DHT22;2160;51.172;6.808;2024-01-30T09:43:33;13.10;99.90
4293;DHT22;2160;51.172;6.808;2024-01-30T09:46:02;13.20;99.90
4293;DHT22;2160;51.172;6.808;2024-01-30T09:48:30;13.10;99.90
4293;DHT22;2160;51.172;6.808;2024-01-30T09:50:57;13.30;99.90
4293;DHT22;2160;51.172;6.808;2024-01-30T09:53:26;13.30;99.90
4293;DHT22;2160;51.172;6.808;2024-01-30T09:55:53;13.30;99.90
4293;DHT22;2160;51.172;6.808;2024-01-30T09:58:20;13.30;99.90
4293;DHT22;2160;51.172;6.808;2024-01-30T10:00:47;13.40;99.90
4293;DHT22;2160;51.172;6.808;2024-01-30T10:03:14;13.40;99.90
4293;DHT22;2160;51.172;6.808;2024-01-30T10:05:41;13.40;99.90
4293;DHT22;2160;51.172;6.808;2024-01-30T10:08:12;13.50;99.90
4293;DHT22;2160;51.172;6.808;2024-01-30T10:10:40;13.30;99.90
4293;DHT22;2160;51.172;6.808;2024-01-30T10:13:07;13.30;99.90
4293;DHT22;2160;51.172;6.808;2024-01-30T10:15:34;13.40;99.90
4293;DHT22;2160;51.172;6.808;2024-01-30T10:18:04;13.40;99.90
4293;DHT22;2160;51.172;6.808;2024-01-30T10:20:32;13.50;99.90
4293;DHT22;2160;51.172;6.808;2024-01-30T10:22:59;13.70;99.90
4293;DHT22;2160;51.172;6.808;2024-01-30T10:25:26;14.00;99.90
4293;DHT22;2160;51.172;6.808;2024-01-30T10:27:55;14.10;99.90
4293;DHT22;2160;51.172;6.808;2024-01-30T10:30:22;14.00;99.90
4293;DHT22;2160;51.172;6.808;2024-01-30T10:32:49;14.00;99.90
4293;DHT22;2160;51.172;6.808;2024-01-30T10:35:17;14.10;99.90
4293;DHT22;2160;51.172;6.808;2024-01-30T10:37:44;14.10;99.90
4293;DHT22;2160;51.172;6.808;2024-01-30T10:40:14;14.00;99.90
4293;DHT22;2160;51.172;6.808;2024-01-30T10:42:43;14.00;99.90
4293;DHT22;2160;51.172;6.808;2024-01-30T10:45:12;14.00;99.90
4293;DHT22;2160;51.172;6.808;2024-01-30T10:47:43;14.10;99.90
4293;DHT22;2160;51.172;6.808;2024-01-30T10:50:12;14.10;99.90
4293;DHT22;2160;51.172;6.808;2024-01-30T10:52:41;14.20;99.90
4293;DHT22;2160;51.172;6.808;2024-01-30T10:55:10;14.40;99.90
4293;DHT22;2160;51.172;6.808;2024-01-30T10:57:37;14.30;99.90
4293;DHT22;2160;51.172;6.808;2024-01-30T11:00:06;14.40;99.90
4293;DHT22;2160;51.172;6.808;2024-01-30T11:02:39;14.50;99.90
4293;DHT22;2160;51.172;6.808;2024-01-30T11:05:06;14.60;99.90
4293;DHT22;2160;51.172;6.808;2024-01-30T11:07:34;14.70;99.90
4293;DHT22;2160;51.172;6.808;2024-01-30T11:10:03;14.70;99.90
4293;DHT22;2160;51.172;6.808;2024-01-30T11:12:31;14.90;99.90
4293;DHT22;2160;51.172;6.808;2024-01-30T11:15:04;15.00;99.90
4293;DHT22;2160;51.172;6.808;2024-01-30T11:17:49;14.90;99.90
4293;DHT22;2160;51.172;6.808;2024-01-30T11:20:20;15.10;99.90
4293;DHT22;2160;51.172;6.808;2024-01-30T11:22:49;15.00;99.90
4293;DHT22;2160;51.172;6.808;2024-01-30T11:25:19;15.10;99.90
4293;DHT22;2160;51.172;6.808;2024-01-30T11:27:46;15.20;99.90
4293;DHT22;2160;51.172;6.808;2024-01-30T11:30:23;15.50;99.90
4293;DHT22;2160;51.172;6.808;2024-01-30T11:33:01;15.30;99.90
4293;DHT22;2160;51.172;6.808;2024-01-30T11:35:32;15.20;99.90
4293;DHT22;2160;51.172;6.808;2024-01-30T11:38:00;15.20;99.90
4293;DHT22;2160;51.172;6.808;2024-01-30T11:40:28;15.30;99.90
4293;DHT22;2160;51.172;6.808;2024-01-30T11:42:55;15.30;99.90
4293;DHT22;2160;51.172;6.808;2024-01-30T11:45:22;15.30;99.90
4293;DHT22;2160;51.172;6.808;2024-01-30T11:47:49;15.30;99.90
4293;DHT22;2160;51.172;6.808;2024-01-30T11:50:18;15.20;99.90
4293;DHT22;2160;51.172;6.808;2024-01-30T11:52:45;15.20;99.90
4293;DHT22;2160;51.172;6.808;2024-01-30T11:55:13;15.20;99.90
4293;DHT22;2160;51.172;6.808;2024-01-30T11:57:41;15.20;99.90
4293;DHT22;2160;51.172;6.808;2024-01-30T12:00:15;15.20;99.90
4293;DHT22;2160;51.172;6.808;2024-01-30T12:02:42;15.20;99.90
4293;DHT22;2160;51.172;6.808;2024-01-30T12:05:09;15.30;99.90
4293;DHT22;2160;51.172;6.808;2024-01-30T12:07:38;15.30;99.90
4293;DHT22;2160;51.172;6.808;2024-01-30T12:10:05;15.30;99.90
4293;DHT22;2160;51.172;6.808;2024-01-30T12:12:33;15.30;99.90
4293;DHT22;2160;51.172;6.808;2024-01-30T12:15:01;15.40;99.90
4293;DHT22;2160;51.172;6.808;2024-01-30T12:17:29;15.40;99.90
4293;DHT22;2160;51.172;6.808;2024-01-30T12:20:03;15.30;99.90
4293;DHT22;2160;51.172;6.808;2024-01-30T12:22:33;15.00;99.90
4293;DHT22;2160;51.172;6.808;2024-01-30T12:25:02;14.90;99.90
4293;DHT22;2160;51.172;6.808;2024-01-30T12:27:29;15.00;99.90
4293;DHT22;2160;51.172;6.808;2024-01-30T12:29:57;15.20;99.90
4293;DHT22;2160;51.172;6.808;2024-01-30T12:32:24;15.20;99.90
4293;DHT22;2160;51.172;6.808;2024-01-30T12:34:54;14.90;99.90
4293;DHT22;2160;51.172;6.808;2024-01-30T12:37:22;14.90;99.90
4293;DHT22;2160;51.172;6.808;2024-01-30T12:39:51;14.80;99.90
4293;DHT22;2160;51.172;6.808;2024-01-30T12:42:21;15.00;99.90
4293;DHT22;2160;51.172;6.808;2024-01-30T12:44:48;14.80;99.90
4293;DHT22;2160;51.172;6.808;2024-01-30T12:47:15;14.90;99.90
4293;DHT22;2160;51.172;6.808;2024-01-30T12:49:43;14.90;99.90
4293;DHT22;2160;51.172;6.808;2024-01-30T12:52:10;15.00;99.90
4293;DHT22;2160;51.172;6.808;2024-01-30T12:54:38;15.00;99.90
4293;DHT22;2160;51.172;6.808;2024-01-30T12:57:05;15.10;99.90
4293;DHT22;2160;51.172;6.808;2024-01-30T12:59:34;15.00;99.90
4293;DHT22;2160;51.172;6.808;2024-01-30T13:02:01;15.20;99.90
4293;DHT22;2160;51.172;6.808;2024-01-30T13:04:29;15.20;99.90
4293;DHT22;2160;51.172;6.808;2024-01-30T13:06:56;15.20;99.90
4293;DHT22;2160;51.172;6.808;2024-01-30T13:09:23;15.30;99.90
4293;DHT22;2160;51.172;6.808;2024-01-30T13:11:51;15.20;99.90
4293;DHT22;2160;51.172;6.808;2024-01-30T13:14:18;15.00;99.90
4293;DHT22;2160;51.172;6.808;2024-01-30T13:16:46;15.20;99.90
4293;DHT22;2160;51.172;6.808;2024-01-30T13:19:13;15.40;99.90
4293;DHT22;2160;51.172;6.808;2024-01-30T13:21:40;15.30;99.90
4293;DHT22;2160;51.172;6.808;2024-01-30T13:24:08;15.10;99.90
4293;DHT22;2160;51.172;6.808;2024-01-30T13:26:35;15.00;99.90
4293;DHT22;2160;51.172;6.808;2024-01-30T13:29:03;15.10;99.90
4293;DHT22;2160;51.172;6.808;2024-01-30T13:31:30;14.90;99.90
4293;DHT22;2160;51.172;6.808;2024-01-30T13:33:58;14.90;99.90
4293;DHT22;2160;51.172;6.808;2024-01-30T13:36:25;14.70;99.90
4293;DHT22;2160;51.172;6.808;2024-01-30T13:38:52;14.90;99.90
4293;DHT22;2160;51.172;6.808;2024-01-30T13:41:19;14.70;99.90
4293;DHT22;2160;51.172;6.808;2024-01-30T13:43:48;14.90;99.90
4293;DHT22;2160;51.172;6.808;2024-01-30T13:46:15;15.00;99.90
4293;DHT22;2160;51.172;6.808;2024-01-30T13:48:42;15.00;99.90
4293;DHT22;2160;51.172;6.808;2024-01-30T13:51:11;14.90;99.90
4293;DHT22;2160;51.172;6.808;2024-01-30T13:53:38;14.90;99.90
4293;DHT22;2160;51.172;6.808;2024-01-30T13:56:06;15.10;99.90
4293;DHT22;2160;51.172;6.808;2024-01-30T13:58:33;15.20;99.90
4293;DHT22;2160;51.172;6.808;2024-01-30T14:01:01;15.20;99.90
4293;DHT22;2160;51.172;6.808;2024-01-30T14:03:29;15.10;99.90
4293;DHT22;2160;51.172;6.808;2024-01-30T14:05:55;15.00;99.90
4293;DHT22;2160;51.172;6.808;2024-01-30T14:08:24;15.30;99.90
4293;DHT22;2160;51.172;6.808;2024-01-30T14:10:53;15.30;99.90
4293;DHT22;2160;51.172;6.808;2024-01-30T14:13:21;15.20;99.90
4293;DHT22;2160;51.172;6.808;2024-01-30T14:15:48;15.10;99.90
4293;DHT22;2160;51.172;6.808;2024-01-30T14:18:16;15.20;99.90
4293;DHT22;2160;51.172;6.808;2024-01-30T14:20:43;15.20;99.90
4293;DHT22;2160;51.172;6.808;2024-01-30T14:23:10;15.20;99.90
4293;DHT22;2160;51.172;6.808;2024-01-30T14:25:38;15.20;99.90
4293;DHT22;2160;51.172;6.808;2024-01-30T14:28:06;15.30;99.90
4293;DHT22;2160;51.172;6.808;2024-01-30T14:30:33;15.30;99.90
4293;DHT22;2160;51.172;6.808;2024-01-30T14:33:00;15.30;99.90
4293;DHT22;2160;51.172;6.808;2024-01-30T14:35:27;15.00;99.90
4293;DHT22;2160;51.172;6.808;2024-01-30T14:37:54;15.10;99.90
4293;DHT22;2160;51.172;6.808;2024-01-30T14:40:22;15.00;99.90
4293;DHT22;2160;51.172;6.808;2024-01-30T14:42:50;15.20;99.90
4293;DHT22;2160;51.172;6.808;2024-01-30T14:45:17;15.10;99.90
4293;DHT22;2160;51.172;6.808;2024-01-30T14:47:45;15.00;99.90
4293;DHT22;2160;51.172;6.808;2024-01-30T14:50:12;15.00;99.90
4293;DHT22;2160;51.172;6.808;2024-01-30T14:52:39;14.90;99.90
4293;DHT22;2160;51.172;6.808;2024-01-30T14:55:07;15.20;99.90
4293;DHT22;2160;51.172;6.808;2024-01-30T14:57:35;15.00;99.90
4293;DHT22;2160;51.172;6.808;2024-01-30T15:00:06;15.00;99.90
4293;DHT22;2160;51.172;6.808;2024-01-30T15:02:34;15.00;99.90
4293;DHT22;2160;51.172;6.808;2024-01-30T15:05:01;14.90;99.90
4293;DHT22;2160;51.172;6.808;2024-01-30T15:07:28;15.00;99.90
4293;DHT22;2160;51.172;6.808;2024-01-30T15:09:55;15.00;99.90
4293;DHT22;2160;51.172;6.808;2024-01-30T15:12:22;14.80;99.90
4293;DHT22;2160;51.172;6.808;2024-01-30T15:14:49;14.70;99.90
4293;DHT22;2160;51.172;6.808;2024-01-30T15:17:19;14.80;99.90
4293;DHT22;2160;51.172;6.808;2024-01-30T15:19:47;14.90;99.90
4293;DHT22;2160;51.172;6.808;2024-01-30T15:22:14;14.90;99.90
4293;DHT22;2160;51.172;6.808;2024-01-30T15:24:41;14.80;99.90
4293;DHT22;2160;51.172;6.808;2024-01-30T15:27:08;14.70;99.90
4293;DHT22;2160;51.172;6.808;2024-01-30T15:29:35;14.60;99.90
4293;DHT22;2160;51.172;6.808;2024-01-30T15:32:02;14.60;99.90
4293;DHT22;2160;51.172;6.808;2024-01-30T15:34:30;14.30;99.90
4293;DHT22;2160;51.172;6.808;2024-01-30T15:37:00;14.10;99.90
4293;DHT22;2160;51.172;6.808;2024-01-30T15:39:28;14.10;99.90
4293;DHT22;2160;51.172;6.808;2024-01-30T15:41:55;14.10;99.90
4293;DHT22;2160;51.172;6.808;2024-01-30T15:44:24;14.00;99.90
4293;DHT22;2160;51.172;6.808;2024-01-30T15:46:51;14.00;99.90
4293;DHT22;2160;51.172;6.808;2024-01-30T15:49:18;14.10;99.90
4293;DHT22;2160;51.172;6.808;2024-01-30T15:51:51;14.00;99.90
4293;DHT22;2160;51.172;6.808;2024-01-30T15:54:23;14.10;99.90
4293;DHT22;2160;51.172;6.808;2024-01-30T15:56:51;14.10;99.90
4293;DHT22;2160;51.172;6.808;2024-01-30T15:59:24;14.10;99.90
4293;DHT22;2160;51.172;6.808;2024-01-30T16:01:53;13.90;99.90
4293;DHT22;2160;51.172;6.808;2024-01-30T16:04:20;13.90;99.90
4293;DHT22;2160;51.172;6.808;2024-01-30T16:06:50;13.80;99.90
4293;DHT22;2160;51.172;6.808;2024-01-30T16:09:17;13.80;99.90
4293;DHT22;2160;51.172;6.808;2024-01-30T16:11:44;14.00;99.90
4293;DHT22;2160;51.172;6.808;2024-01-30T16:14:11;13.70;99.90
4293;DHT22;2160;51.172;6.808;2024-01-30T16:16:38;13.50;99.90
4293;DHT22;2160;51.172;6.808;2024-01-30T16:19:06;13.20;99.90
4293;DHT22;2160;51.172;6.808;2024-01-30T16:21:33;13.20;99.90
4293;DHT22;2160;51.172;6.808;2024-01-30T16:24:01;13.10;99.90
4293;DHT22;2160;51.172;6.808;2024-01-30T16:26:28;13.00;99.90
4293;DHT22;2160;51.172;6.808;2024-01-30T16:28:55;13.10;99.90
4293;DHT22;2160;51.172;6.808;2024-01-30T16:31:22;13.10;99.90
4293;DHT22;2160;51.172;6.808;2024-01-30T16:33:49;13.20;99.90
4293;DHT22;2160;51.172;6.808;2024-01-30T16:36:16;13.30;99.90
4293;DHT22;2160;51.172;6.808;2024-01-30T16:38:43;13.30;99.90
4293;DHT22;2160;51.172;6.808;2024-01-30T16:41:11;13.20;99.90
4293;DHT22;2160;51.172;6.808;2024-01-30T16:43:38;13.10;99.90
4293;DHT22;2160;51.172;6.808;2024-01-30T16:46:05;13.10;99.90
4293;DHT22;2160;51.172;6.808;2024-01-30T16:48:32;13.20;99.90
4293;DHT22;2160;51.172;6.808;2024-01-30T16:50:59;13.20;99.90
4293;DHT22;2160;51.172;6.808;2024-01-30T16:53:26;13.20;99.90
4293;DHT22;2160;51.172;6.808;2024-01-30T16:55:54;13.20;99.90
4293;DHT22;2160;51.172;6.808;2024-01-30T16:58:22;13.20;99.90
4293;DHT22;2160;51.172;6.808;2024-01-30T17:00:49;13.20;99.90
4293;DHT22;2160;51.172;6.808;2024-01-30T17:03:16;13.10;99.90
4293;DHT22;2160;51.172;6.808;2024-01-30T17:05:43;13.10;99.90
4293;DHT22;2160;51.172;6.808;2024-01-30T17:08:10;13.10;99.90
4293;DHT22;2160;51.172;6.808;2024-01-30T17:10:37;13.20;99.90
4293;DHT22;2160;51.172;6.808;2024-01-30T17:13:04;13.20;99.90
4293;DHT22;2160;51.172;6.808;2024-01-30T17:15:33;13.10;99.90
4293;DHT22;2160;51.172;6.808;2024-01-30T17:18:01;13.10;99.90
4293;DHT22;2160;51.172;6.808;2024-01-30T17:20:28;13.10;99.90
4293;DHT22;2160;51.172;6.808;2024-01-30T17:22:55;13.20;99.90
4293;DHT22;2160;51.172;6.808;2024-01-30T17:25:22;13.20;99.90
4293;DHT22;2160;51.172;6.808;2024-01-30T17:27:48;13.10;99.90
4293;DHT22;2160;51.172;6.808;2024-01-30T17:30:20;13.10;99.90
4293;DHT22;2160;51.172;6.808;2024-01-30T17:32:49;13.10;99.90
4293;DHT22;2160;51.172;6.808;2024-01-30T17:35:16;13.30;99.90
4293;DHT22;2160;51.172;6.808;2024-01-30T17:37:43;13.30;99.90
4293;DHT22;2160;51.172;6.808;2024-01-30T17:40:11;13.30;99.90
4293;DHT22;2160;51.172;6.808;2024-01-30T17:42:38;13.10;99.90
4293;DHT22;2160;51.172;6.808;2024-01-30T17:45:06;12.90;99.90
4293;DHT22;2160;51.172;6.808;2024-01-30T17:47:33;13.00;99.90
4293;DHT22;2160;51.172;6.808;2024-01-30T17:50:02;13.10;99.90
4293;DHT22;2160;51.172;6.808;2024-01-30T17:52:29;13.20;99.90
4293;DHT22;2160;51.172;6.808;2024-01-30T17:54:56;13.30;99.90
4293;DHT22;2160;51.172;6.808;2024-01-30T17:57:23;13.20;99.90
4293;DHT22;2160;51.172;6.808;2024-01-30T17:59:50;13.30;99.90
4293;DHT22;2160;51.172;6.808;2024-01-30T18:02:18;13.20;99.90
4293;DHT22;2160;51.172;6.808;2024-01-30T18:04:45;13.30;99.90
4293;DHT22;2160;51.172;6.808;2024-01-30T18:07:13;13.20;99.90
4293;DHT22;2160;51.172;6.808;2024-01-30T18:09:40;13.30;99.90
4293;DHT22;2160;51.172;6.808;2024-01-30T18:12:07;13.10;99.90
4293;DHT22;2160;51.172;6.808;2024-01-30T18:14:36;12.90;99.90
4293;DHT22;2160;51.172;6.808;2024-01-30T18:17:03;12.90;99.90
4293;DHT22;2160;51.172;6.808;2024-01-30T18:19:30;12.90;99.90
4293;DHT22;2160;51.172;6.808;2024-01-30T18:21:57;12.80;99.90
4293;DHT22;2160;51.172;6.808;2024-01-30T18:24:25;12.70;99.90
4293;DHT22;2160;51.172;6.808;2024-01-30T18:26:52;12.60;99.90
4293;DHT22;2160;51.172;6.808;2024-01-30T18:29:20;12.40;99.90
4293;DHT22;2160;51.172;6.808;2024-01-30T18:31:47;12.30;99.90
4293;DHT22;2160;51.172;6.808;2024-01-30T18:34:14;12.10;99.90
4293;DHT22;2160;51.172;6.808;2024-01-30T18:36:41;12.20;99.90
4293;DHT22;2160;51.172;6.808;2024-01-30T18:39:08;12.10;99.90
4293;DHT22;2160;51.172;6.808;2024-01-30T18:41:37;12.10;99.90
4293;DHT22;2160;51.172;6.808;2024-01-30T18:44:04;12.00;99.90
4293;DHT22;2160;51.172;6.808;2024-01-30T18:46:32;12.10;99.90
4293;DHT22;2160;51.172;6.808;2024-01-30T18:48:59;12.10;99.90
4293;DHT22;2160;51.172;6.808;2024-01-30T18:51:26;12.10;99.90
4293;DHT22;2160;51.172;6.808;2024-01-30T18:53:53;12.10;99.90
4293;DHT22;2160;51.172;6.808;2024-01-30T18:56:20;12.10;99.90
4293;DHT22;2160;51.172;6.808;2024-01-30T18:58:48;12.00;99.90
4293;DHT22;2160;51.172;6.808;2024-01-30T19:01:15;12.10;99.90
4293;DHT22;2160;51.172;6.808;2024-01-30T19:03:45;12.00;99.90
4293;DHT22;2160;51.172;6.808;2024-01-30T19:06:12;12.00;99.90
4293;DHT22;2160;51.172;6.808;2024-01-30T19:08:39;12.10;99.90
4293;DHT22;2160;51.172;6.808;2024-01-30T19:11:06;12.00;99.90
4293;DHT22;2160;51.172;6.808;2024-01-30T19:13:33;11.90;99.90
4293;DHT22;2160;51.172;6.808;2024-01-30T19:16:01;12.00;99.90
4293;DHT22;2160;51.172;6.808;2024-01-30T19:18:28;12.10;99.90
4293;DHT22;2160;51.172;6.808;2024-01-30T19:20:57;12.10;99.90
4293;DHT22;2160;51.172;6.808;2024-01-30T19:23:24;12.10;99.90
4293;DHT22;2160;51.172;6.808;2024-01-30T19:25:51;12.20;99.90
4293;DHT22;2160;51.172;6.808;2024-01-30T19:28:18;12.30;99.90
4293;DHT22;2160;51.172;6.808;2024-01-30T19:30:45;12.40;99.90
4293;DHT22;2160;51.172;6.808;2024-01-30T19:33:13;12.40;99.90
4293;DHT22;2160;51.172;6.808;2024-01-30T19:35:40;12.40;99.90
4293;DHT22;2160;51.172;6.808;2024-01-30T19:38:07;12.50;99.90
4293;DHT22;2160;51.172;6.808;2024-01-30T19:40:35;12.30;99.90
4293;DHT22;2160;51.172;6.808;2024-01-30T19:43:04;12.20;99.90
4293;DHT22;2160;51.172;6.808;2024-01-30T19:45:31;12.10;99.90
4293;DHT22;2160;51.172;6.808;2024-01-30T19:47:58;12.20;99.90
4293;DHT22;2160;51.172;6.808;2024-01-30T19:50:26;12.10;99.90
4293;DHT22;2160;51.172;6.808;2024-01-30T19:52:53;12.00;99.90
4293;DHT22;2160;51.172;6.808;2024-01-30T19:55:20;11.90;99.90
4293;DHT22;2160;51.172;6.808;2024-01-30T19:57:47;12.00;99.90
4293;DHT22;2160;51.172;6.808;2024-01-30T20:00:15;12.00;99.90
4293;DHT22;2160;51.172;6.808;2024-01-30T20:02:42;12.00;99.90
4293;DHT22;2160;51.172;6.808;2024-01-30T20:05:09;12.00;99.90
4293;DHT22;2160;51.172;6.808;2024-01-30T20:07:39;12.10;99.90
4293;DHT22;2160;51.172;6.808;2024-01-30T20:10:07;11.60;99.90
4293;DHT22;2160;51.172;6.808;2024-01-30T20:12:34;11.60;99.90
4293;DHT22;2160;51.172;6.808;2024-01-30T20:15:03;11.50;99.90
4293;DHT22;2160;51.172;6.808;2024-01-30T20:17:30;11.50;99.90
4293;DHT22;2160;51.172;6.808;2024-01-30T20:19:58;11.60;99.90
4293;DHT22;2160;51.172;6.808;2024-01-30T20:22:25;11.60;99.90
4293;DHT22;2160;51.172;6.808;2024-01-30T20:24:53;11.80;99.90
4293;DHT22;2160;51.172;6.808;2024-01-30T20:27:21;11.70;99.90
4293;DHT22;2160;51.172;6.808;2024-01-30T20:29:48;11.60;99.90
4293;DHT22;2160;51.172;6.808;2024-01-30T20:32:15;11.60;99.90
4293;DHT22;2160;51.172;6.808;2024-01-30T20:34:42;11.60;99.90
4293;DHT22;2160;51.172;6.808;2024-01-30T20:37:10;11.90;99.90
4293;DHT22;2160;51.172;6.808;2024-01-30T20:39:37;11.70;99.90
4293;DHT22;2160;51.172;6.808;2024-01-30T20:42:06;11.70;99.90
4293;DHT22;2160;51.172;6.808;2024-01-30T20:44:33;11.80;99.90
4293;DHT22;2160;51.172;6.808;2024-01-30T20:47:00;11.90;99.90
4293;DHT22;2160;51.172;6.808;2024-01-30T20:49:27;11.80;99.90
4293;DHT22;2160;51.172;6.808;2024-01-30T20:51:54;11.80;99.90
4293;DHT22;2160;51.172;6.808;2024-01-30T20:54:21;11.80;99.90
4293;DHT22;2160;51.172;6.808;2024-01-30T20:56:48;11.70;99.90
4293;DHT22;2160;51.172;6.808;2024-01-30T20:59:16;11.60;99.90
4293;DHT22;2160;51.172;6.808;2024-01-30T21:01:43;11.60;99.90
4293;DHT22;2160;51.172;6.808;2024-01-30T21:04:10;11.60;99.90